Time;durP1;ratioP1;P1;durP2;ratioP2;P2;SDS_P1;SDS_P2;PMS_P1;PMS_P2;Temp;Humidity;BMP_temperature;BMP_pressure;BME280_temperature;BME280_humidity;BME280_pressure;Samples;Min_cycle;Max_cycle;Signal;HPM_P1;HPM_P2
2023/08/15 00:00:56;;;;;;;2.17;2.08;;;24.50;99.90;;;;;;5023194;28;20212;-74
2023/08/15 00:03:23;;;;;;;2.50;2.30;;;24.40;99.90;;;;;;5024022;28;20293;-72
2023/08/15 00:05:50;;;;;;;2.53;2.33;;;24.40;99.90;;;;;;5025148;28;20208;-73
2023/08/15 00:08:18;;;;;;;3.45;2.30;;;24.30;99.90;;;;;;5019483;28;20236;-73
2023/08/15 00:10:47;;;;;;;2.50;2.30;;;24.10;99.90;;;;;;5023971;28;20707;-72
2023/08/15 00:13:14;;;;;;;2.47;2.38;;;24.10;99.90;;;;;;5023512;28;20242;-73
2023/08/15 00:15:41;;;;;;;3.00;2.40;;;23.90;99.90;;;;;;5018956;28;20208;-74
2023/08/15 00:18:10;;;;;;;4.43;2.83;;;23.90;99.90;;;;;;5021929;28;20216;-73
2023/08/15 00:20:37;;;;;;;2.55;2.35;;;24.00;99.90;;;;;;5024814;28;20253;-73
2023/08/15 00:23:05;;;;;;;3.17;2.97;;;23.90;99.90;;;;;;5023962;28;20192;-73
2023/08/15 00:25:32;;;;;;;3.15;2.95;;;24.00;99.90;;;;;;5019612;28;20208;-73
2023/08/15 00:27:59;;;;;;;2.88;2.60;;;24.00;99.90;;;;;;5024472;28;20227;-73
2023/08/15 00:30:26;;;;;;;2.63;2.42;;;24.10;99.90;;;;;;5022498;28;20207;-73
2023/08/15 00:32:53;;;;;;;2.40;2.25;;;24.10;99.90;;;;;;5024767;28;20277;-73
2023/08/15 00:35:21;;;;;;;2.60;2.40;;;24.20;99.90;;;;;;5017638;28;20259;-72
2023/08/15 00:37:48;;;;;;;2.88;2.67;;;24.30;99.90;;;;;;5022569;28;20242;-72
2023/08/15 00:40:16;;;;;;;4.30;2.90;;;24.30;99.90;;;;;;5018727;28;20199;-72
2023/08/15 00:42:43;;;;;;;2.67;2.47;;;24.30;99.90;;;;;;5025800;28;20248;-72
2023/08/15 00:45:10;;;;;;;3.17;2.55;;;24.30;99.90;;;;;;5019208;28;20227;-73
2023/08/15 00:47:38;;;;;;;4.28;2.97;;;24.30;99.90;;;;;;5017920;28;20215;-73
2023/08/15 00:50:07;;;;;;;3.53;2.83;;;24.30;99.90;;;;;;5024613;28;20200;-72
2023/08/15 00:52:36;;;;;;;3.40;3.10;;;24.30;99.90;;;;;;5016660;28;20942;-73
2023/08/15 00:55:04;;;;;;;3.55;3.00;;;24.00;99.90;;;;;;5022015;28;20231;-72
2023/08/15 00:57:31;;;;;;;2.90;2.70;;;24.00;99.90;;;;;;5024373;28;20309;-73
2023/08/15 00:59:58;;;;;;;3.47;2.88;;;24.00;99.90;;;;;;5021395;28;20196;-73
2023/08/15 01:02:25;;;;;;;3.00;2.80;;;24.10;99.90;;;;;;5024430;28;20231;-73
2023/08/15 01:04:53;;;;;;;3.20;2.90;;;24.20;99.90;;;;;;5025407;28;20282;-73
2023/08/15 01:07:20;;;;;;;3.55;2.83;;;24.30;99.90;;;;;;5027883;28;20282;-74
2023/08/15 01:09:48;;;;;;;3.00;2.80;;;24.40;99.90;;;;;;5022065;28;20293;-74
2023/08/15 01:12:23;;;;;;;3.00;2.60;;;24.40;99.90;;;;;;5018321;28;20220;-73
2023/08/15 01:14:54;;;;;;;3.13;2.60;;;24.40;99.90;;;;;;5023601;28;20266;-73
2023/08/15 01:17:27;;;;;;;3.05;2.75;;;24.40;99.90;;;;;;5018679;28;20235;-73
2023/08/15 01:19:57;;;;;;;3.22;2.95;;;24.30;99.90;;;;;;5023451;28;20206;-74
2023/08/15 01:22:30;;;;;;;3.25;3.05;;;24.30;99.90;;;;;;5024948;28;20608;-73
2023/08/15 01:24:59;;;;;;;2.78;2.58;;;24.20;99.90;;;;;;5026515;28;20246;-73
2023/08/15 01:27:27;;;;;;;2.92;2.63;;;24.20;99.90;;;;;;5022667;28;20915;-73
2023/08/15 01:29:55;;;;;;;3.03;2.78;;;24.10;99.90;;;;;;5027249;28;20239;-74
2023/08/15 01:32:31;;;;;;;3.33;2.83;;;24.00;99.90;;;;;;5021123;28;20227;-74
2023/08/15 01:35:06;;;;;;;2.80;2.60;;;23.90;99.90;;;;;;5019459;28;20203;-73
2023/08/15 01:37:35;;;;;;;2.95;2.75;;;23.80;99.90;;;;;;5025107;28;20219;-74
2023/08/15 01:40:06;;;;;;;2.83;2.63;;;23.70;99.90;;;;;;5026354;28;20204;-73
2023/08/15 01:42:34;;;;;;;3.25;2.95;;;23.60;99.90;;;;;;5023536;28;20298;-73
2023/08/15 01:45:02;;;;;;;2.65;2.38;;;23.60;99.90;;;;;;5025673;28;20199;-74
2023/08/15 01:47:31;;;;;;;2.80;2.60;;;23.60;99.90;;;;;;5023098;28;20785;-73
2023/08/15 01:49:58;;;;;;;3.00;2.75;;;23.60;99.90;;;;;;5023158;28;20255;-73
2023/08/15 01:52:25;;;;;;;3.75;2.95;;;23.70;99.90;;;;;;5023165;28;20298;-74
2023/08/15 01:54:52;;;;;;;2.78;2.53;;;23.60;99.90;;;;;;5024538;28;20728;-73
2023/08/15 01:57:20;;;;;;;2.70;2.50;;;23.60;99.90;;;;;;5024305;28;20301;-74
2023/08/15 01:59:47;;;;;;;3.28;2.97;;;23.60;99.90;;;;;;5026463;28;20266;-73
2023/08/15 02:02:14;;;;;;;3.30;3.00;;;23.70;99.90;;;;;;5022940;28;20282;-73
2023/08/15 02:04:41;;;;;;;3.03;2.83;;;23.70;99.90;;;;;;5027913;28;20471;-74
2023/08/15 02:07:08;;;;;;;3.17;2.97;;;23.70;99.90;;;;;;5021286;28;20316;-74
2023/08/15 02:09:35;;;;;;;2.90;2.70;;;23.70;99.90;;;;;;5024868;28;20208;-73
2023/08/15 02:12:02;;;;;;;2.90;2.70;;;23.80;99.90;;;;;;5028345;28;21655;-73
2023/08/15 02:14:31;;;;;;;2.90;2.70;;;23.70;99.90;;;;;;5025141;28;20682;-73
2023/08/15 02:16:58;;;;;;;3.08;2.78;;;23.70;99.90;;;;;;5024175;28;20263;-73
2023/08/15 02:19:25;;;;;;;3.30;3.00;;;23.70;99.90;;;;;;5025355;28;20216;-75
2023/08/15 02:21:52;;;;;;;2.63;2.42;;;23.70;99.90;;;;;;5023913;28;20625;-74
2023/08/15 02:24:19;;;;;;;2.90;2.70;;;23.70;99.90;;;;;;5023663;28;20236;-74
2023/08/15 02:26:46;;;;;;;2.95;2.75;;;23.60;99.90;;;;;;5021975;28;20208;-74
2023/08/15 02:29:15;;;;;;;2.70;2.50;;;23.60;99.90;;;;;;5011694;28;20211;-74
2023/08/15 02:31:49;;;;;;;3.30;3.10;;;23.60;99.90;;;;;;5022785;28;20200;-75
2023/08/15 02:34:17;;;;;;;3.38;3.17;;;23.60;99.90;;;;;;5025435;28;20783;-74
2023/08/15 02:36:47;;;;;;;3.15;2.85;;;23.50;99.90;;;;;;5028429;28;20285;-74
2023/08/15 02:39:15;;;;;;;3.10;2.90;;;23.50;99.90;;;;;;5022208;28;20207;-74
2023/08/15 02:41:43;;;;;;;3.42;3.13;;;23.40;99.90;;;;;;5023540;28;20282;-74
2023/08/15 02:44:10;;;;;;;3.00;2.80;;;23.40;99.90;;;;;;5023648;28;20225;-75
2023/08/15 02:46:38;;;;;;;3.00;2.80;;;23.50;99.90;;;;;;5028875;28;20902;-73
2023/08/15 02:49:07;;;;;;;3.13;2.92;;;23.40;99.90;;;;;;5028890;28;20304;-73
2023/08/15 02:51:34;;;;;;;3.42;3.15;;;23.40;99.90;;;;;;5018892;28;20207;-74
2023/08/15 02:54:01;;;;;;;2.90;2.70;;;23.50;99.90;;;;;;5021660;28;20279;-74
2023/08/15 02:56:28;;;;;;;3.60;3.30;;;23.40;99.90;;;;;;5021791;28;20686;-74
2023/08/15 02:58:55;;;;;;;3.10;2.80;;;23.40;99.90;;;;;;5025414;28;20206;-74
2023/08/15 03:01:23;;;;;;;4.10;3.10;;;23.40;99.90;;;;;;5017493;28;20286;-74
2023/08/15 03:03:50;;;;;;;3.15;2.95;;;23.30;99.90;;;;;;5024989;28;20202;-74
2023/08/15 03:06:19;;;;;;;3.05;2.85;;;23.30;99.90;;;;;;5023821;28;20211;-74
2023/08/15 03:08:47;;;;;;;3.10;2.90;;;23.30;99.90;;;;;;5021843;28;20984;-74
2023/08/15 03:11:14;;;;;;;3.60;3.30;;;23.20;99.90;;;;;;5019426;28;20311;-73
2023/08/15 03:13:41;;;;;;;3.08;2.88;;;23.20;99.90;;;;;;5020351;28;20254;-74
2023/08/15 03:16:08;;;;;;;3.30;3.10;;;23.10;99.90;;;;;;5021915;28;20207;-74
2023/08/15 03:18:35;;;;;;;3.30;3.10;;;23.10;99.90;;;;;;5018708;28;20247;-74
2023/08/15 03:21:05;;;;;;;3.45;3.10;;;23.10;99.90;;;;;;5018131;28;20222;-74
2023/08/15 03:23:34;;;;;;;3.35;3.10;;;23.20;99.90;;;;;;5018033;28;20202;-74
2023/08/15 03:26:04;;;;;;;3.00;2.80;;;23.20;99.90;;;;;;5020138;28;20200;-74
2023/08/15 03:28:31;;;;;;;3.08;2.88;;;23.20;99.90;;;;;;5022158;28;20235;-74
2023/08/15 03:30:58;;;;;;;3.88;3.58;;;23.20;99.90;;;;;;5018356;28;20231;-74
2023/08/15 03:33:26;;;;;;;3.17;2.97;;;23.20;99.90;;;;;;5026195;28;20265;-73
2023/08/15 03:35:53;;;;;;;3.00;2.80;;;23.20;99.90;;;;;;5019825;28;20230;-74
2023/08/15 03:38:22;;;;;;;3.28;3.08;;;23.20;99.90;;;;;;5018931;28;20352;-74
2023/08/15 03:41:01;;;;;;;3.03;2.83;;;23.20;99.90;;;;;;5024873;28;20289;-73
2023/08/15 03:43:27;;;;;;;3.90;3.50;;;23.20;99.90;;;;;;5023037;28;20196;-73
2023/08/15 03:45:55;;;;;;;3.70;3.40;;;23.20;99.90;;;;;;5014630;28;20204;-73
2023/08/15 03:48:22;;;;;;;3.75;3.45;;;23.10;99.90;;;;;;5020796;28;20247;-73
2023/08/15 03:50:49;;;;;;;3.10;2.90;;;23.10;99.90;;;;;;5022057;28;20203;-74
2023/08/15 03:53:16;;;;;;;3.50;3.20;;;23.10;99.90;;;;;;5020309;28;20223;-73
2023/08/15 03:55:43;;;;;;;2.90;2.70;;;23.10;99.90;;;;;;5020866;28;20782;-73
2023/08/15 03:58:12;;;;;;;3.33;3.13;;;23.10;99.90;;;;;;5019325;28;20246;-73
2023/08/15 04:00:39;;;;;;;2.90;2.70;;;23.10;99.90;;;;;;5017742;28;20242;-73
2023/08/15 04:03:06;;;;;;;3.58;3.33;;;23.10;99.90;;;;;;5022287;28;20269;-73
2023/08/15 04:05:33;;;;;;;3.08;2.88;;;23.10;99.90;;;;;;5023035;28;20239;-73
2023/08/15 04:08:00;;;;;;;3.00;2.80;;;23.10;99.90;;;;;;5021903;28;20414;-74
2023/08/15 04:10:27;;;;;;;3.20;3.00;;;23.10;99.90;;;;;;5021786;28;20238;-73
2023/08/15 04:12:54;;;;;;;3.15;2.85;;;23.10;99.90;;;;;;5021193;28;20306;-74
2023/08/15 04:15:23;;;;;;;3.70;3.40;;;23.10;99.90;;;;;;5021159;28;20250;-74
2023/08/15 04:17:50;;;;;;;3.47;3.17;;;23.10;99.90;;;;;;5021426;28;20223;-72
2023/08/15 04:20:17;;;;;;;3.60;3.30;;;23.10;99.90;;;;;;5017969;28;20210;-71
2023/08/15 04:22:44;;;;;;;3.30;2.92;;;23.10;99.90;;;;;;5018139;28;20246;-71
2023/08/15 04:25:11;;;;;;;3.60;3.30;;;23.10;99.90;;;;;;5018369;28;20223;-70
2023/08/15 04:27:38;;;;;;;3.70;3.40;;;23.10;99.90;;;;;;5020057;28;20291;-71
2023/08/15 04:30:08;;;;;;;4.28;3.58;;;23.00;99.90;;;;;;5018850;28;20288;-71
2023/08/15 04:32:37;;;;;;;3.33;3.10;;;23.00;99.90;;;;;;5020416;28;20203;-71
2023/08/15 04:35:04;;;;;;;3.15;2.92;;;23.00;99.90;;;;;;5017360;28;20242;-71
2023/08/15 04:37:31;;;;;;;4.88;3.03;;;23.00;99.90;;;;;;5021100;28;20675;-71
2023/08/15 04:39:58;;;;;;;3.30;3.10;;;23.00;99.90;;;;;;5021878;28;20213;-70
2023/08/15 04:42:25;;;;;;;3.20;3.00;;;23.00;99.90;;;;;;5020925;28;20238;-70
2023/08/15 04:44:52;;;;;;;3.10;2.90;;;23.00;99.90;;;;;;5020602;28;20771;-71
2023/08/15 04:47:20;;;;;;;3.10;2.90;;;23.00;99.90;;;;;;5025427;28;20277;-71
2023/08/15 04:49:48;;;;;;;3.60;3.30;;;23.00;99.90;;;;;;5020896;28;20200;-71
2023/08/15 04:52:16;;;;;;;3.90;3.60;;;22.90;99.90;;;;;;5026408;28;20199;-71
2023/08/15 04:54:43;;;;;;;3.90;3.05;;;22.90;99.90;;;;;;5023949;28;20586;-71
2023/08/15 04:57:10;;;;;;;3.47;3.17;;;23.00;99.90;;;;;;5021748;28;20302;-71
2023/08/15 04:59:37;;;;;;;4.05;3.65;;;23.00;99.90;;;;;;5021939;28;20239;-70
2023/08/15 05:02:04;;;;;;;3.85;3.53;;;23.10;99.90;;;;;;5028770;28;20199;-71
2023/08/15 05:04:31;;;;;;;3.55;3.25;;;23.10;99.90;;;;;;5025172;28;20223;-71
2023/08/15 05:07:00;;;;;;;3.25;3.00;;;23.00;99.90;;;;;;5025643;28;20288;-71
2023/08/15 05:09:28;;;;;;;3.38;3.08;;;23.00;99.90;;;;;;5021651;28;20295;-71
2023/08/15 05:11:55;;;;;;;3.25;3.05;;;23.10;99.90;;;;;;5023497;28;20232;-71
2023/08/15 05:14:22;;;;;;;3.45;3.25;;;23.10;99.90;;;;;;5021238;28;20247;-71
2023/08/15 05:16:50;;;;;;;3.65;3.35;;;23.10;99.90;;;;;;5026948;28;20225;-71
2023/08/15 05:19:17;;;;;;;3.40;3.20;;;23.20;99.90;;;;;;5024311;28;20380;-72
2023/08/15 05:21:44;;;;;;;3.30;3.08;;;23.30;99.90;;;;;;5022940;28;20207;-71
2023/08/15 05:24:12;;;;;;;3.40;3.20;;;23.30;99.90;;;;;;5025674;28;20855;-72
2023/08/15 05:26:40;;;;;;;3.75;3.45;;;23.30;99.90;;;;;;5020937;28;20218;-72
2023/08/15 05:29:07;;;;;;;3.53;3.22;;;23.40;99.90;;;;;;5023440;28;20947;-72
2023/08/15 05:31:34;;;;;;;4.13;3.72;;;23.50;99.90;;;;;;5026030;28;20235;-72
2023/08/15 05:34:01;;;;;;;4.50;3.80;;;23.80;99.90;;;;;;5025124;28;20297;-72
2023/08/15 05:36:28;;;;;;;4.93;3.65;;;23.90;99.90;;;;;;5023764;28;20196;-71
2023/08/15 05:38:55;;;;;;;4.82;3.78;;;24.10;99.90;;;;;;5022635;28;20665;-72
2023/08/15 05:41:23;;;;;;;4.05;3.75;;;24.30;99.90;;;;;;5022488;28;20265;-71
2023/08/15 05:43:50;;;;;;;3.53;3.22;;;24.40;99.90;;;;;;5023967;28;20220;-72
2023/08/15 05:46:17;;;;;;;3.70;3.40;;;24.50;99.90;;;;;;5022914;28;20261;-72
2023/08/15 05:48:44;;;;;;;3.40;3.10;;;24.50;99.90;;;;;;5018130;28;20306;-72
2023/08/15 05:51:11;;;;;;;4.50;4.10;;;24.60;99.90;;;;;;5017728;28;20287;-71
2023/08/15 05:53:38;;;;;;;3.60;3.30;;;24.60;99.90;;;;;;5028327;28;20223;-71
2023/08/15 05:56:05;;;;;;;4.15;3.45;;;24.60;99.90;;;;;;5023008;28;20236;-71
2023/08/15 05:58:34;;;;;;;3.70;3.40;;;24.60;99.90;;;;;;5022232;28;20223;-71
2023/08/15 06:01:01;;;;;;;4.07;3.67;;;24.70;99.90;;;;;;5022908;28;20255;-73
2023/08/15 06:03:28;;;;;;;4.32;3.95;;;24.60;99.90;;;;;;5021613;28;20210;-73
2023/08/15 06:05:56;;;;;;;4.68;4.20;;;24.60;99.90;;;;;;5022126;28;20298;-72
2023/08/15 06:08:23;;;;;;;4.30;3.90;;;24.60;99.90;;;;;;5019485;28;20282;-72
2023/08/15 06:10:50;;;;;;;4.45;4.05;;;24.70;99.90;;;;;;5019009;28;20200;-72
2023/08/15 06:13:17;;;;;;;3.88;3.58;;;24.80;99.90;;;;;;5023199;28;20239;-71
2023/08/15 06:15:46;;;;;;;4.05;3.75;;;24.90;99.90;;;;;;5021432;28;20281;-72
2023/08/15 06:18:13;;;;;;;4.00;3.70;;;24.90;99.90;;;;;;5023829;28;20873;-73
2023/08/15 06:20:40;;;;;;;4.07;3.78;;;25.00;99.90;;;;;;5023420;28;20605;-72
2023/08/15 06:23:07;;;;;;;3.78;3.50;;;25.20;99.90;;;;;;5024733;28;20281;-73
2023/08/15 06:25:34;;;;;;;3.70;3.40;;;25.40;99.90;;;;;;5018697;28;20266;-73
2023/08/15 06:28:02;;;;;;;4.40;3.88;;;25.40;99.90;;;;;;5019452;28;20687;-73
2023/08/15 06:30:29;;;;;;;3.97;3.67;;;25.40;99.90;;;;;;5019363;28;20231;-72
2023/08/15 06:32:57;;;;;;;3.88;3.58;;;25.50;99.90;;;;;;5023237;28;20207;-72
2023/08/15 06:35:28;;;;;;;4.50;4.05;;;25.70;99.90;;;;;;5017421;28;20227;-72
2023/08/15 06:37:55;;;;;;;4.75;4.35;;;25.80;99.90;;;;;;5020034;28;20254;-72
2023/08/15 06:40:23;;;;;;;4.38;3.90;;;25.80;99.90;;;;;;5017790;28;20212;-72
2023/08/15 06:42:50;;;;;;;5.10;4.60;;;25.70;99.90;;;;;;5020816;28;20794;-72
2023/08/15 06:45:19;;;;;;;5.03;4.22;;;25.80;99.90;;;;;;5017056;28;20203;-72
2023/08/15 06:47:46;;;;;;;4.85;4.20;;;25.80;99.90;;;;;;5019522;28;20223;-72
2023/08/15 06:50:15;;;;;;;4.55;4.25;;;25.90;99.90;;;;;;5016617;28;20207;-72
2023/08/15 06:52:44;;;;;;;4.40;4.10;;;26.00;99.90;;;;;;5020677;28;20727;-72
2023/08/15 06:55:11;;;;;;;4.60;4.20;;;26.20;99.90;;;;;;5018667;28;20247;-72
2023/08/15 06:57:38;;;;;;;4.50;4.10;;;26.40;99.90;;;;;;5023820;28;20294;-72
2023/08/15 07:00:11;;;;;;;4.45;4.05;;;26.50;99.90;;;;;;5014788;28;20239;-71
2023/08/15 07:02:39;;;;;;;5.30;4.78;;;26.50;99.90;;;;;;5016810;28;20231;-71
2023/08/15 07:05:07;;;;;;;5.20;4.70;;;26.50;99.90;;;;;;5018889;28;20821;-72
2023/08/15 07:07:37;;;;;;;4.93;4.53;;;26.40;99.90;;;;;;5019362;28;20246;-72
2023/08/15 07:10:06;;;;;;;4.53;4.13;;;26.40;99.90;;;;;;5021980;28;20200;-72
2023/08/15 07:12:33;;;;;;;4.70;4.25;;;26.40;99.90;;;;;;5023127;28;20208;-71
2023/08/15 07:15:01;;;;;;;5.13;4.72;;;26.50;99.90;;;;;;5018926;28;20796;-72
2023/08/15 07:17:28;;;;;;;4.88;4.47;;;26.70;99.90;;;;;;5017690;28;20833;-72
2023/08/15 07:19:56;;;;;;;4.15;3.85;;;27.00;99.90;;;;;;5021548;28;20235;-71
2023/08/15 07:22:23;;;;;;;4.30;4.00;;;27.20;99.90;;;;;;5015523;28;20208;-71
2023/08/15 07:24:53;;;;;;;3.65;3.30;;;27.30;99.90;;;;;;5018231;28;21020;-72
2023/08/15 07:27:20;;;;;;;4.63;4.22;;;27.40;99.90;;;;;;5011586;28;20274;-72
2023/08/15 07:29:47;;;;;;;4.45;4.03;;;27.30;99.90;;;;;;5019239;28;20277;-71
2023/08/15 07:32:14;;;;;;;4.68;4.28;;;27.40;99.90;;;;;;5017130;28;20246;-71
2023/08/15 07:34:41;;;;;;;4.97;4.53;;;27.40;99.90;;;;;;5021639;28;20216;-72
2023/08/15 07:37:08;;;;;;;4.93;4.55;;;27.30;99.90;;;;;;5013713;28;20222;-72
2023/08/15 07:39:36;;;;;;;4.80;4.40;;;27.40;99.90;;;;;;5022611;28;20231;-72
2023/08/15 07:42:05;;;;;;;5.47;4.97;;;27.60;99.90;;;;;;5018076;28;20334;-72
2023/08/15 07:44:32;;;;;;;4.57;4.28;;;27.80;99.90;;;;;;5017023;28;20200;-72
2023/08/15 07:46:59;;;;;;;4.72;4.32;;;27.80;99.90;;;;;;5017261;28;20737;-72
2023/08/15 07:49:25;;;;;;;5.18;4.78;;;27.80;99.90;;;;;;5016280;28;20207;-72
2023/08/15 07:51:54;;;;;;;5.38;4.50;;;27.80;99.90;;;;;;5021206;28;20257;-73
2023/08/15 07:54:21;;;;;;;5.10;4.68;;;27.90;99.90;;;;;;5019029;28;20273;-72
2023/08/15 07:56:48;;;;;;;5.85;4.20;;;28.00;99.90;;;;;;5017702;28;20223;-70
2023/08/15 07:59:17;;;;;;;4.93;4.30;;;28.10;99.90;;;;;;5016967;28;20257;-71
2023/08/15 08:01:44;;;;;;;4.45;4.10;;;28.00;99.90;;;;;;5014067;28;20777;-72
2023/08/15 08:04:11;;;;;;;4.82;4.25;;;28.00;99.90;;;;;;5010424;28;20827;-72
2023/08/15 08:06:38;;;;;;;5.05;4.57;;;28.20;99.90;;;;;;5016947;28;20206;-71
2023/08/15 08:09:08;;;;;;;5.10;4.70;;;28.30;99.90;;;;;;5017429;28;20203;-71
2023/08/15 08:11:35;;;;;;;6.68;4.63;;;28.30;99.90;;;;;;5019912;28;20200;-72
2023/08/15 08:14:03;;;;;;;4.90;4.50;;;28.40;99.90;;;;;;5017560;28;20199;-71
2023/08/15 08:16:32;;;;;;;4.47;4.07;;;28.40;99.90;;;;;;5019601;28;20209;-71
2023/08/15 08:18:59;;;;;;;6.07;4.65;;;28.40;99.90;;;;;;5017583;28;20330;-72
2023/08/15 08:21:27;;;;;;;5.20;4.80;;;28.40;99.90;;;;;;5018384;28;20290;-73
2023/08/15 08:23:55;;;;;;;6.60;4.63;;;28.20;99.90;;;;;;5017858;28;20223;-73
2023/08/15 08:26:22;;;;;;;5.22;4.75;;;28.20;99.90;;;;;;5016768;28;20298;-72
2023/08/15 08:28:50;;;;;;;4.80;4.40;;;28.50;99.90;;;;;;5018401;28;20219;-72
2023/08/15 08:31:17;;;;;;;5.13;4.70;;;28.70;99.90;;;;;;5016487;28;20269;-71
2023/08/15 08:33:45;;;;;;;4.55;4.15;;;28.70;99.90;;;;;;5016359;28;20852;-71
2023/08/15 08:36:12;;;;;;;5.10;4.60;;;28.90;99.90;;;;;;5020629;28;20751;-72
2023/08/15 08:38:39;;;;;;;5.10;4.70;;;29.00;99.90;;;;;;5013989;28;20306;-71
2023/08/15 08:41:06;;;;;;;4.55;4.25;;;28.90;99.90;;;;;;5013730;28;20204;-73
2023/08/15 08:45:36;;;;;;;5.47;5.00;;;29.00;99.90;;;;;;5089546;27;20352;-75
2023/08/15 08:48:09;;;;;;;5.60;5.10;;;29.20;99.90;;;;;;5098943;28;20249;-77
2023/08/15 08:50:36;;;;;;;5.15;4.65;;;29.20;99.90;;;;;;5107362;27;20235;-77
2023/08/15 08:53:04;;;;;;;5.55;4.82;;;29.10;99.90;;;;;;5102576;27;20200;-78
2023/08/15 08:55:34;;;;;;;5.20;4.82;;;29.00;99.90;;;;;;5102884;27;20209;-77
2023/08/15 08:58:03;;;;;;;5.78;4.82;;;29.20;99.90;;;;;;5103393;27;20231;-75
2023/08/15 09:00:33;;;;;;;4.55;4.25;;;29.30;99.90;;;;;;5102381;27;20232;-77
2023/08/15 09:03:01;;;;;;;4.60;4.28;;;29.50;99.90;;;;;;5106026;27;20219;-77
2023/08/15 09:05:28;;;;;;;5.30;4.90;;;29.60;99.90;;;;;;5101801;28;20244;-77
2023/08/15 09:07:55;;;;;;;5.22;4.68;;;29.70;99.90;;;;;;5104825;27;20232;-76
2023/08/15 09:10:24;;;;;;;4.85;4.47;;;29.70;99.90;;;;;;5100271;27;20208;-77
2023/08/15 09:12:51;;;;;;;5.93;4.70;;;29.60;99.90;;;;;;5098600;27;20193;-77
2023/08/15 09:15:18;;;;;;;5.57;4.97;;;29.70;99.90;;;;;;5100134;27;20271;-77
2023/08/15 09:17:46;;;;;;;5.97;5.43;;;29.70;99.90;;;;;;5101508;27;20288;-76
2023/08/15 09:20:15;;;;;;;5.13;4.60;;;29.70;99.90;;;;;;5102639;27;20220;-77
2023/08/15 09:22:45;;;;;;;5.15;4.75;;;29.70;99.90;;;;;;5104397;27;20208;-78
2023/08/15 09:25:14;;;;;;;5.03;4.68;;;29.70;99.90;;;;;;5102621;27;20228;-75
2023/08/15 09:27:42;;;;;;;5.50;5.00;;;29.80;99.90;;;;;;5101320;27;20401;-77
2023/08/15 09:30:11;;;;;;;5.00;4.60;;;29.90;99.90;;;;;;5101346;27;20197;-77
2023/08/15 09:32:42;;;;;;;7.00;4.60;;;30.20;99.90;;;;;;5099504;27;20839;-77
2023/08/15 09:35:12;;;;;;;5.38;4.70;;;30.20;99.90;;;;;;5098670;27;20285;-77
2023/08/15 09:37:42;;;;;;;4.90;4.50;;;30.20;99.90;;;;;;5100421;27;20823;-77
2023/08/15 09:40:13;;;;;;;4.40;4.10;;;30.10;99.90;;;;;;5092801;27;20284;-77
2023/08/15 09:42:39;;;;;;;5.05;4.63;;;30.10;99.90;;;;;;5101929;27;20201;-77
2023/08/15 09:45:09;;;;;;;5.32;4.78;;;30.20;99.90;;;;;;5095602;27;20216;-77
2023/08/15 09:47:37;;;;;;;4.70;4.30;;;30.40;99.90;;;;;;5100868;27;20221;-76
2023/08/15 09:50:06;;;;;;;4.55;4.25;;;30.60;99.90;;;;;;5100030;27;20200;-77
2023/08/15 09:52:37;;;;;;;4.57;4.20;;;30.50;99.90;;;;;;5100295;28;20193;-77
2023/08/15 09:55:04;;;;;;;4.88;4.50;;;30.60;99.90;;;;;;5093692;27;20213;-76
2023/08/15 09:57:31;;;;;;;5.10;4.40;;;30.70;99.90;;;;;;5091792;28;20197;-77
2023/08/15 09:59:58;;;;;;;4.93;4.55;;;30.80;99.90;;;;;;5084908;28;20289;-76
2023/08/15 10:02:27;;;;;;;4.72;4.00;;;30.90;99.90;;;;;;5088268;28;20671;-78
2023/08/15 10:05:02;;;;;;;5.15;4.43;;;31.10;99.90;;;;;;5092847;28;20307;-77
2023/08/15 10:07:32;;;;;;;4.15;3.85;;;31.20;99.90;;;;;;5086310;28;21556;-76
2023/08/15 10:10:03;;;;;;;4.15;3.78;;;31.00;99.90;;;;;;5090331;27;20277;-76
2023/08/15 10:12:31;;;;;;;4.40;4.00;;;31.00;99.90;;;;;;5089322;28;20300;-77
2023/08/15 10:14:59;;;;;;;4.13;3.72;;;31.10;99.90;;;;;;5086641;28;20261;-78
2023/08/15 10:17:28;;;;;;;5.10;4.25;;;31.10;99.90;;;;;;5086615;28;20293;-78
2023/08/15 10:20:00;;;;;;;4.65;4.18;;;31.20;99.90;;;;;;5089129;28;20266;-76
2023/08/15 10:22:27;;;;;;;5.70;4.10;;;31.20;99.90;;;;;;5090825;28;20231;-78
2023/08/15 10:24:56;;;;;;;4.82;4.43;;;31.30;99.90;;;;;;5092380;28;20226;-78
2023/08/15 10:27:26;;;;;;;4.85;4.40;;;31.40;99.90;;;;;;5086753;27;20281;-77
2023/08/15 10:29:55;;;;;;;4.80;4.20;;;31.20;99.90;;;;;;5090604;28;20202;-77
2023/08/15 10:32:26;;;;;;;4.15;3.85;;;31.20;99.90;;;;;;5094287;28;20279;-79
2023/08/15 10:34:54;;;;;;;4.65;4.25;;;31.20;99.90;;;;;;5093636;28;20318;-76
2023/08/15 10:37:30;;;;;;;5.72;4.10;;;31.30;99.90;;;;;;5090571;28;20291;-77
2023/08/15 10:40:08;;;;;;;6.72;4.55;;;31.40;99.90;;;;;;5089042;28;20204;-77
2023/08/15 10:43:11;;;;;;;4.40;4.10;;;31.40;99.90;;;;;;5086859;27;20718;-78
2023/08/15 10:45:42;;;;;;;4.20;3.90;;;31.50;99.90;;;;;;5085673;28;20697;-79
2023/08/15 10:48:10;;;;;;;4.93;4.22;;;31.50;99.90;;;;;;5087205;28;20284;-77
2023/08/15 10:50:43;;;;;;;5.68;4.28;;;31.40;99.90;;;;;;5083541;28;20232;-76
2023/08/15 10:53:10;;;;;;;5.28;3.88;;;31.60;99.90;;;;;;5089856;28;20292;-79
2023/08/15 10:55:39;;;;;;;4.72;4.32;;;31.80;99.90;;;;;;5091252;28;20213;-78
2023/08/15 10:58:08;;;;;;;4.50;4.20;;;31.70;99.90;;;;;;5094125;28;20197;-78
2023/08/15 11:00:37;;;;;;;5.07;4.57;;;31.80;99.90;;;;;;5091475;28;20281;-77
2023/08/15 11:03:04;;;;;;;4.97;4.47;;;31.80;99.90;;;;;;5089698;28;20699;-77
2023/08/15 11:05:31;;;;;;;6.25;4.50;;;31.90;99.90;;;;;;5090434;28;20235;-78
2023/08/15 11:08:11;;;;;;;5.07;4.55;;;31.60;99.90;;;;;;5091296;28;20302;-77
2023/08/15 11:10:46;;;;;;;7.38;4.97;;;31.40;99.90;;;;;;5092967;28;20262;-78
2023/08/15 11:13:13;;;;;;;7.10;3.78;;;31.40;99.90;;;;;;5095609;28;20197;-77
2023/08/15 11:15:42;;;;;;;4.75;4.35;;;31.40;99.90;;;;;;5097281;28;20206;-78
2023/08/15 11:18:09;;;;;;;4.47;4.18;;;31.40;99.90;;;;;;5090578;28;20201;-77
2023/08/15 11:20:36;;;;;;;4.25;3.88;;;31.30;99.90;;;;;;5093104;28;20235;-76
2023/08/15 11:23:04;;;;;;;5.00;4.60;;;31.30;99.90;;;;;;5093867;28;20201;-77
2023/08/15 11:25:30;;;;;;;4.40;4.10;;;31.30;99.90;;;;;;5096327;28;20253;-78
2023/08/15 11:27:58;;;;;;;4.72;4.32;;;31.30;99.90;;;;;;5098566;28;20205;-78
2023/08/15 11:30:27;;;;;;;5.25;4.38;;;31.50;99.90;;;;;;5104123;28;20788;-78
2023/08/15 11:32:56;;;;;;;4.30;3.90;;;31.50;99.90;;;;;;5096612;28;20288;-77
2023/08/15 11:35:23;;;;;;;5.10;4.70;;;31.50;99.90;;;;;;5097977;28;20251;-77
2023/08/15 11:37:50;;;;;;;4.75;4.30;;;31.60;99.90;;;;;;5099854;28;20232;-78
2023/08/15 11:40:17;;;;;;;5.28;4.63;;;31.60;99.90;;;;;;5097575;28;20193;-77
2023/08/15 11:42:44;;;;;;;4.25;3.95;;;31.60;99.90;;;;;;5096009;28;20506;-76
2023/08/15 11:45:17;;;;;;;4.60;4.20;;;31.60;99.90;;;;;;5098367;28;20866;-77
2023/08/15 11:47:59;;;;;;;5.65;4.80;;;31.80;99.90;;;;;;5099604;28;20252;-77
2023/08/15 11:50:27;;;;;;;4.35;3.95;;;32.00;99.90;;;;;;5092234;28;20906;-77
2023/08/15 11:52:55;;;;;;;4.32;3.90;;;32.00;99.90;;;;;;5088591;28;20220;-79
2023/08/15 11:55:23;;;;;;;5.10;4.35;;;32.20;99.90;;;;;;5102587;27;20312;-80
2023/08/15 11:57:50;;;;;;;4.88;4.45;;;32.30;99.90;;;;;;5096918;28;20637;-79
2023/08/15 12:00:18;;;;;;;4.57;4.18;;;32.50;99.90;;;;;;5093832;28;20281;-78
2023/08/15 12:02:46;;;;;;;5.25;4.30;;;32.70;99.90;;;;;;5094337;28;20274;-78
2023/08/15 12:05:16;;;;;;;4.07;3.78;;;32.70;99.90;;;;;;5098596;28;20300;-78
2023/08/15 12:07:44;;;;;;;4.75;4.35;;;32.70;99.90;;;;;;5096429;28;20259;-79
2023/08/15 12:10:13;;;;;;;5.38;4.28;;;32.80;99.90;;;;;;5091847;28;20798;-79
2023/08/15 12:12:42;;;;;;;6.55;4.57;;;33.00;99.90;;;;;;5094740;28;20232;-78
2023/08/15 12:15:10;;;;;;;5.38;4.88;;;33.00;99.90;;;;;;5097478;28;20763;-79
2023/08/15 12:17:38;;;;;;;5.47;4.78;;;32.90;99.90;;;;;;5093900;28;20202;-78
2023/08/15 12:20:07;;;;;;;4.80;4.40;;;32.80;99.90;;;;;;5094192;28;20229;-80
2023/08/15 12:22:37;;;;;;;4.72;4.32;;;32.80;99.90;;;;;;5093033;28;20202;-78
2023/08/15 12:25:07;;;;;;;5.60;4.90;;;32.90;99.90;;;;;;5100202;28;20224;-80
2023/08/15 12:27:34;;;;;;;5.38;4.88;;;32.90;99.90;;;;;;5098828;28;20202;-80
2023/08/15 12:30:01;;;;;;;5.28;4.55;;;32.90;99.90;;;;;;5099736;28;20234;-78
2023/08/15 12:32:28;;;;;;;4.05;3.75;;;32.90;99.90;;;;;;5100261;28;20885;-79
2023/08/15 12:34:55;;;;;;;4.82;4.40;;;32.90;99.90;;;;;;5094876;28;20210;-78
2023/08/15 12:37:22;;;;;;;4.68;4.38;;;33.00;99.90;;;;;;5097955;28;20205;-79
2023/08/15 12:39:51;;;;;;;4.78;4.32;;;33.00;99.90;;;;;;5098178;28;20193;-77
2023/08/15 12:42:18;;;;;;;4.15;3.75;;;33.10;99.90;;;;;;5098600;28;20837;-82
2023/08/15 12:44:45;;;;;;;4.97;4.47;;;33.20;99.90;;;;;;5095086;28;20217;-79
2023/08/15 12:47:12;;;;;;;5.40;4.70;;;33.20;99.90;;;;;;5100522;28;20242;-79
2023/08/15 12:49:39;;;;;;;5.97;4.70;;;33.20;99.90;;;;;;5099637;28;20232;-77
2023/08/15 12:52:07;;;;;;;5.72;4.80;;;33.20;99.90;;;;;;5101886;28;20232;-80
2023/08/15 12:54:34;;;;;;;5.72;4.53;;;33.20;99.90;;;;;;5103892;28;20817;-79